KLRO/LRO METAR and TAF weather

Enter ICAO airport designator
Station Type Date Time Source
KLRO METAR 2020/01/23 05:55 UTC NOAA

KLRO 230555Z AUTO 36004KT 10SM FEW021 BKN028 OVC034 04/M00 A3029 RMK AO2


Station Type Date Time Source
KLRO Decoded METAR 2020/01/23 05:55 UTC NOAA

Station name not available
Jan 23, 2020 - 12:55 AM EST / 2020.01.23 0555 UTC
Wind: from the N (360 degrees) at 5 MPH (4 KT):0
Visibility: 10 mile(s):0
Sky conditions: overcast
Temperature: 39 F (4 C)
Dew Point: 32 F (0 C)
Relative Humidity: 75%
Pressure (altimeter): 30.29 in. Hg (1025 hPa)
ob: KLRO 230555Z AUTO 36004KT 10SM FEW021 BKN028 OVC034 04/M00 A3029 RMK AO2
cycle: 6

Station Type Date Time Source
KLRO TAF UTC NOAA

Error!

Example: see airport list